Latest Weather Observations for Jandakot

IDW60801

Issued at 10:23 pm WST Saturday 23 January 2021 (issued every 10 minutes, with the page automatically refreshed every 10 minutes)

About weather observations | Map of weather stations | Latest weather observations for WA | Other Formats
Station Details ID: 009172 Name: JANDAKOT AERO Lat: -32.10 Lon: 115.88 Height: 30.0 m
Data from the previous 72 hours. | See also: Recent months at Jandakot
Date/Time
WST
Temp
°C
App
Temp
°C
Dew
Point
°C
Rel
Hum
%
Delta-T
°C
Wind Press
QNH
hPa
Press
MSL
hPa
Rain since
9am
mm
Dir  Spd
km/h
Gust
km/h
Spd
kts
Gust
kts
23/10:00pm 21.0 19.0 14.9 68 3.6 WSW 19 24 10 13 1006.2 1006.0 0.0
23/09:30pm 21.1 19.0 14.7 67 3.8 WSW 19 24 10 13 1006.1 1005.9 0.0
23/09:00pm 21.2 19.4 15.5 70 3.4 SW 19 30 10 16 1005.9 1005.7 0.0
23/08:30pm 21.3 19.3 15.4 69 3.5 WSW 20 26 11 14 1005.4 1005.2 0.0
23/08:00pm 21.7 19.3 15.5 68 3.7 SW 22 30 12 16 1005.2 1005.0 0.0
23/07:30pm 21.8 19.7 16.3 71 3.3 SW 22 30 12 16 1004.8 1004.6 0.0
23/07:00pm 22.1 20.6 16.8 72 3.2 SW 20 28 11 15 1004.7 1004.5 0.0
23/06:30pm 22.3 20.4 16.6 70 3.5 SW 22 30 12 16 1004.3 1004.1 0.0
23/06:00pm 22.8 20.2 16.8 69 3.7 WSW 26 43 14 23 1003.9 1003.7 0.0
23/05:30pm 22.9 19.5 16.7 68 3.8 WSW 30 39 16 21 1003.2 1003.0 0.0
23/05:00pm 24.2 21.5 16.7 63 4.6 SW 26 37 14 20 1002.7 1002.5 0.0
23/04:30pm 24.8 22.3 17.0 62 4.8 WSW 26 39 14 21 1002.9 1002.7 0.0
23/04:00pm 24.7 21.7 16.7 61 4.9 WSW 28 37 15 20 1003.0 1002.8 0.0
23/03:57pm 24.5 21.5 16.7 61 4.8 WSW 28 46 15 25 1003.0 1002.8 0.0
23/03:30pm 25.2 21.4 16.6 59 5.3 WSW 32 43 17 23 1003.0 1002.8 0.0
23/03:00pm 25.5 23.0 17.2 60 5.2 SW 26 35 14 19 1002.9 1002.7 0.0
23/02:30pm 25.6 22.2 16.7 58 5.5 WSW 30 39 16 21 1002.9 1002.7 0.0
23/02:00pm 26.2 23.0 17.3 58 5.6 WSW 30 41 16 22 1002.8 1002.6 0.0
23/01:30pm 26.1 23.3 17.2 58 5.6 WSW 28 35 15 19 1002.7 1002.5 0.0
23/01:00pm 27.1 24.1 17.8 56 5.9 WSW 30 37 16 20 1002.7 1002.5 0.0
23/12:30pm 26.3 23.1 18.2 61 5.1 WSW 32 43 17 23 1002.8 1002.6 0.0
23/12:00pm 26.1 23.4 18.5 63 4.9 SW 30 43 16 23 1002.8 1002.6 0.0
23/11:30am 26.0 23.3 18.4 63 4.8 WSW 30 41 16 22 1003.0 1002.8 0.0
23/11:00am 26.0 23.8 18.7 64 4.7 SW 28 39 15 21 1003.0 1002.8 0.0
23/10:30am 25.4 22.4 18.6 66 4.3 WSW 32 44 17 24 1003.1 1002.9 0.0
23/10:00am 26.2 24.8 18.9 64 4.7 W 24 32 13 17 1002.9 1002.7 0.0
23/09:30am 26.1 25.1 18.0 61 5.1 WSW 20 28 11 15 1002.4 1002.2 0.0
23/09:00am 26.1 25.0 17.7 60 5.3 W 20 24 11 13 1002.1 1001.9 0.0
23/08:30am 25.8 26.4 18.5 64 4.6 WSW 13 17 7 9 1001.7 1001.5 0.0
23/08:00am 24.7 25.6 18.4 68 4.0 S 11 19 6 10 1001.8 1001.6 0.0
23/07:30am 24.0 24.3 18.0 69 3.8 SW 13 20 7 11 1001.8 1001.6 0.0
23/07:00am 22.5 22.4 14.9 62 4.5 SW 9 13 5 7 1001.5 1001.3 0.0
23/06:30am 20.7 22.3 14.8 69 3.5 CALM 0 0 0 0 1001.2 1001.0 0.0
23/06:00am 18.6 19.8 13.9 74 2.7 CALM 0 0 0 0 1001.5 1001.3 0.0
23/05:30am 18.3 19.6 14.0 76 2.5 CALM 0 0 0 0 1001.1 1000.9 0.0
23/05:00am 19.7 19.7 13.6 68 3.5 SW 6 7 3 4 1000.9 1000.7 0.0
23/04:30am 20.2 17.8 13.9 67 3.6 SW 19 32 10 17 1001.1 1000.9 0.0
23/04:00am 19.9 19.7 13.6 67 3.6 NE 7 11 4 6 1000.3 1000.2 0.0
23/03:30am 17.8 16.8 13.5 76 2.4 E 11 13 6 7 1000.0 999.9 0.0
23/03:00am 17.3 17.2 13.8 80 2.0 S 7 9 4 5 1000.1 1000.0 0.0
23/02:30am 16.7 17.8 13.6 82 1.7 CALM 0 0 0 0 1000.7 1000.5 0.0
23/02:00am 17.7 19.2 14.6 82 1.8 CALM 0 0 0 0 1000.4 1000.3 0.0
23/01:30am 18.4 19.8 14.3 77 2.4 CALM 0 0 0 0 1000.9 1000.7 0.0
23/01:00am 19.7 21.2 14.7 73 2.9 CALM 0 0 0 0 1001.1 1000.9 0.0
23/12:30am 19.2 19.5 14.9 76 2.5 S 7 11 4 6 1000.9 1000.7 0.0
23/12:00am 20.8 20.6 15.6 72 3.1 SSE 11 13 6 7 1001.4 1001.2 0.0
 
Date/Time
WST
Temp
°C
App
Temp
°C
Dew
Point
°C
Rel
Hum
%
Delta-T
°C
Wind Press
QNH
hPa
Press
MSL
hPa
Rain since
9am
mm
Dir  Spd
km/h
Gust
km/h
Spd
kts
Gust
kts
22/11:30pm 21.8 21.1 16.5 72 3.2 S 15 19 8 10 1001.9 1001.7 0.0
22/11:00pm 21.9 22.3 17.3 75 2.8 SSW 11 15 6 8 1002.4 1002.2 0.0
22/10:30pm 21.4 21.5 17.4 78 2.5 SW 13 15 7 8 1002.5 1002.3 0.0
22/10:00pm 21.8 23.1 17.2 75 2.8 S 6 9 3 5 1002.4 1002.2 0.0
22/09:30pm 22.5 23.3 17.2 72 3.3 SSE 9 11 5 6 1002.4 1002.2 0.0
22/09:00pm 23.6 24.2 17.6 69 3.7 SSW 11 13 6 7 1002.7 1002.5 0.0
22/08:30pm 24.0 24.6 17.7 68 3.9 SW 11 17 6 9 1002.7 1002.5 0.0
22/08:00pm 25.2 23.9 15.8 56 5.7 WSW 17 22 9 12 1002.7 1002.5 0.0
22/07:30pm 26.7 25.8 14.8 48 7.2 SW 13 17 7 9 1002.4 1002.2 0.0
22/07:00pm 27.6 25.9 14.6 45 7.9 SW 17 24 9 13 1002.2 1002.0 0.0
22/06:30pm 28.5 25.2 14.0 41 8.7 SSW 24 30 13 16 1002.2 1002.0 0.0
22/06:00pm 29.1 25.3 13.7 38 9.2 SSW 26 32 14 17 1002.1 1001.9 0.0
22/05:30pm 29.7 25.8 14.3 39 9.3 SW 28 33 15 18 1001.9 1001.7 0.0
22/05:00pm 29.4 26.1 15.1 41 8.8 SW 26 33 14 18 1002.0 1001.8 0.0
22/04:30pm 28.6 25.2 16.8 48 7.4 WSW 30 37 16 20 1002.4 1002.2 0.0
22/04:00pm 28.8 24.9 16.4 47 7.7 WSW 32 39 17 21 1002.4 1002.2 0.0
22/03:30pm 29.4 25.7 16.9 47 7.9 SW 32 41 17 22 1002.4 1002.2 0.0
22/03:00pm 31.2 28.5 17.5 44 8.8 WSW 28 35 15 19 1002.3 1002.1 0.0
22/02:30pm 31.7 28.9 16.4 39 9.6 WSW 26 32 14 17 1002.7 1002.5 0.0
22/02:00pm 32.1 30.1 16.4 39 9.9 WSW 22 28 12 15 1002.8 1002.6 0.0
22/01:30pm 32.0 30.1 16.7 40 9.7 WSW 22 28 12 15 1003.1 1002.9 0.0
22/01:00pm 31.0 29.2 17.0 43 8.9 WSW 22 28 12 15 1003.5 1003.3 0.0
22/12:30pm 31.7 30.1 16.4 39 9.6 WSW 20 26 11 14 1003.6 1003.4 0.0
22/12:00pm 33.5 32.6 15.9 34 11.1 WSW 15 26 8 14 1003.8 1003.6 0.0
22/11:30am 33.0 32.8 13.6 31 11.8 SW 7 15 4 8 1004.1 1003.9 0.0
22/11:00am 32.0 32.0 13.7 33 11.1 N 6 15 3 8 1004.7 1004.5 0.0
22/10:30am 30.6 29.6 13.4 35 10.3 NNE 11 19 6 10 1005.3 1005.1 0.0
22/10:00am 29.2 27.9 13.8 39 9.2 NE 13 19 7 10 1005.9 1005.7 0.0
22/09:30am 28.6 27.5 14.4 41 8.6 ENE 13 20 7 11 1005.8 1005.6 0.0
22/09:00am 27.2 25.1 13.5 42 8.1 ENE 17 22 9 12 1006.0 1005.8 0.0
22/08:30am 26.1 23.7 13.9 47 7.2 ESE 19 24 10 13 1006.3 1006.1 0.0
22/08:00am 24.5 21.7 14.3 53 6.1 ESE 22 28 12 15 1006.5 1006.3 0.0
22/07:30am 22.5 19.0 14.4 60 4.8 E 26 39 14 21 1006.8 1006.6 0.0
22/07:00am 21.4 17.8 14.3 64 4.2 E 26 37 14 20 1006.9 1006.7 0.0
22/06:30am 20.4 16.5 14.3 68 3.5 E 28 35 15 19 1007.1 1006.9 0.0
22/06:00am 19.9 17.0 14.0 69 3.4 E 22 35 12 19 1007.1 1006.9 0.0
22/05:30am 19.7 16.1 14.1 70 3.2 E 26 33 14 18 1007.0 1006.8 0.0
22/05:00am 19.9 16.9 13.8 68 3.5 E 22 30 12 16 1006.9 1006.7 0.0
22/04:30am 20.4 17.0 13.8 66 3.8 E 24 33 13 18 1006.9 1006.7 0.0
22/04:00am 20.8 17.8 13.7 64 4.1 E 22 32 12 17 1006.9 1006.7 0.0
22/03:30am 21.3 18.3 13.7 62 4.4 E 22 33 12 18 1007.0 1006.8 0.0
22/03:00am 21.9 18.2 13.8 60 4.7 E 26 39 14 21 1007.3 1007.1 0.0
22/02:30am 22.5 19.9 13.8 58 5.1 E 20 28 11 15 1007.3 1007.1 0.0
22/02:00am 23.3 20.7 13.8 55 5.6 E 20 33 11 18 1007.6 1007.4 0.0
22/01:30am 24.1 20.9 14.2 54 5.8 E 24 39 13 21 1007.7 1007.5 0.0
22/01:00am 24.9 21.6 14.1 51 6.4 ESE 24 35 13 19 1007.5 1007.3 0.0
22/12:30am 25.9 22.3 14.1 48 7.0 ESE 26 39 14 21 1007.6 1007.4 0.0
22/12:00am 26.5 22.4 13.9 45 7.5 ESE 28 37 15 20 1007.7 1007.5 0.0
 
Date/Time
WST
Temp
°C
App
Temp
°C
Dew
Point
°C
Rel
Hum
%
Delta-T
°C
Wind Press
QNH
hPa
Press
MSL
hPa
Rain since
9am
mm
Dir  Spd
km/h
Gust
km/h
Spd
kts
Gust
kts
21/11:30pm 27.3 24.8 14.0 44 7.9 SE 20 33 11 18 1007.8 1007.6 0.0
21/11:00pm 25.9 25.4 15.9 54 6.1 SE 13 24 7 13 1008.0 1007.8 0.0
21/10:30pm 25.1 25.2 18.3 66 4.3 SSE 15 19 8 10 1007.9 1007.7 0.0
21/10:00pm 25.5 25.8 18.7 66 4.3 SSE 15 20 8 11 1008.1 1007.9 0.0
21/09:30pm 26.1 26.5 19.0 65 4.6 S 15 20 8 11 1008.0 1007.8 0.0
21/09:00pm 26.4 27.3 19.3 65 4.6 SSW 13 17 7 9 1007.9 1007.7 0.0
21/08:30pm 26.7 27.2 19.3 64 4.8 SSW 15 19 8 10 1007.9 1007.7 0.0
21/08:00pm 27.0 27.6 19.4 63 4.9 SSW 15 20 8 11 1007.9 1007.7 0.0
21/07:30pm 27.4 27.4 18.9 59 5.5 SSW 17 24 9 13 1007.9 1007.7 0.0
21/07:00pm 28.2 26.7 17.7 53 6.7 SSW 22 30 12 16 1007.6 1007.4 0.0
21/06:30pm 28.5 25.2 17.1 50 7.2 SW 30 43 16 23 1007.3 1007.1 0.0
21/06:00pm 30.1 26.8 16.9 45 8.3 SW 30 39 16 21 1007.2 1007.0 0.0
21/05:30pm 30.4 26.3 16.0 41 9.0 SW 32 43 17 23 1007.0 1006.8 0.0
21/05:00pm 31.5 27.3 16.3 40 9.6 SW 33 46 18 25 1007.1 1006.9 0.0
21/04:30pm 31.9 27.7 16.2 38 9.8 SW 33 43 18 23 1007.2 1007.0 0.0
21/04:00pm 32.1 27.6 16.4 39 9.9 SW 35 44 19 24 1007.3 1007.1 0.0
21/03:30pm 32.4 28.2 16.3 38 10.1 SW 33 41 18 22 1007.6 1007.4 0.0
21/03:00pm 32.4 29.3 17.5 41 9.6 SW 30 39 16 21 1007.9 1007.7 0.0
21/02:30pm 32.9 29.6 17.9 41 9.7 WSW 32 44 17 24 1008.1 1007.9 0.0
21/02:00pm 32.7 30.1 17.7 40 9.7 WSW 28 35 15 19 1008.3 1008.1 0.0
21/01:30pm 34.2 31.1 17.4 36 10.8 WSW 30 37 16 20 1008.7 1008.5 0.0
21/01:00pm 34.5 33.4 14.4 30 12.4 W 13 24 7 13 1009.0 1008.8 0.0
21/12:30pm 34.3 32.4 14.2 29 12.4 SSW 17 28 9 15 1009.5 1009.3 0.0
21/12:00pm 34.0 32.0 14.0 30 12.3 SE 17 26 9 14 1010.0 1009.8 0.0
21/11:30am 33.5 31.2 14.0 30 11.9 S 19 33 10 18 1010.2 1010.0 0.0
21/11:00am 32.2 30.9 14.8 35 10.7 SE 15 28 8 15 1010.8 1010.6 0.0
21/10:30am 31.1 29.9 15.1 38 9.8 SE 15 24 8 13 1011.1 1010.9 0.0
21/10:00am 30.0 28.7 14.9 39 9.2 ESE 15 24 8 13 1011.4 1011.2 0.0
21/09:30am 29.2 27.7 15.3 42 8.5 ESE 17 24 9 13 1011.5 1011.3 0.0
21/09:00am 28.5 28.0 15.8 46 7.8 SE 13 19 7 10 1011.7 1011.5 0.0
21/08:30am 26.6 25.2 15.6 50 6.7 SE 17 22 9 12 1012.0 1011.8 0.0
21/08:00am 25.5 24.5 15.5 54 6.1 SSE 15 20 8 11 1012.3 1012.1 0.0
21/07:30am 25.0 23.6 15.6 56 5.7 SSE 17 26 9 14 1012.1 1011.9 0.0
21/07:00am 24.1 23.5 15.6 59 5.1 SSE 13 15 7 8 1012.0 1011.8 0.0
21/06:30am 23.2 22.0 16.0 64 4.4 SE 17 22 9 12 1011.7 1011.5 0.0
21/06:00am 22.3 21.8 15.9 67 3.9 SSE 13 19 7 10 1011.6 1011.4 0.0
21/05:30am 22.1 21.6 15.9 68 3.7 S 13 17 7 9 1011.3 1011.1 0.0
21/05:00am 22.3 22.2 16.1 68 3.8 SSW 11 15 6 8 1011.0 1010.8 0.0
21/04:30am 22.6 22.7 16.4 68 3.8 S 11 13 6 7 1011.0 1010.8 0.0
21/04:00am 23.2 22.2 16.5 66 4.1 SSW 17 19 9 10 1010.9 1010.7 0.0
21/03:30am 23.7 23.5 16.7 65 4.3 S 13 19 7 10 1010.6 1010.4 0.0
21/03:00am 24.3 23.9 17.1 64 4.5 SSE 15 19 8 10 1010.5 1010.3 0.0
21/02:30am 24.8 24.5 17.3 63 4.7 S 15 17 8 9 1010.6 1010.4 0.0
21/02:00am 25.3 25.4 17.5 62 4.9 S 13 20 7 11 1010.6 1010.4 0.0
21/01:30am 25.8 25.9 17.4 59 5.3 SE 13 20 7 11 1010.6 1010.4 0.0
21/01:00am 26.2 26.4 17.6 59 5.4 SSE 13 20 7 11 1010.6 1010.4 0.0
21/12:30am 26.7 26.6 17.8 58 5.6 SSE 15 22 8 12 1010.5 1010.3 0.0
21/12:00am 26.9 26.6 18.2 59 5.5 SSE 17 24 9 13 1010.6 1010.4 0.0
 
Date/Time
WST
Temp
°C
App
Temp
°C
Dew
Point
°C
Rel
Hum
%
Delta-T
°C
Wind Press
QNH
hPa
Press
MSL
hPa
Rain since
9am
mm
Dir  Spd
km/h
Gust
km/h
Spd
kts
Gust
kts
20/11:30pm 25.8 26.4 18.7 65 4.5 SSE 13 17 7 9 1010.4 1010.2 0.0
20/11:00pm 25.3 26.2 19.2 69 3.9 S 13 17 7 9 1010.3 1010.1 0.0
20/10:30pm 25.2 26.4 19.8 72 3.5 S 13 17 7 9 1010.4 1010.2 0.0

Other formats

Comma delimited format used in spreadsheet applications
http://www.bom.gov.au/fwo/IDW60801/IDW60801.94609.axf

JavaScript Object Notation format (JSON) in row-major order
http://www.bom.gov.au/fwo/IDW60801/IDW60801.94609.json

Data quality

Most of these data are generated automatically and are frequently updated. Quality checks on data are not normally performed. It is possible for incorrect values to appear. Refer to information at About Latest Weather Observations and please check the disclaimer before using these data.